Hovedside
METAR-TAF:

METAR-TAF

Lufthavner :

Visby lufthavn

Visby, Gotland, Sverige

breddegrad: 57-40N, lengdegrad: 018-21E, høyde over havet: 51 m

Gjeldene værobservasjon

Denne rapporten ble laget for 42 minutter siden, klokken 12:20 UTC
Vind 10 kt fra Nord-nordvest
Temperatur 18°C
Luftfuktighet 83%
Trykk 1012 hPa
Sikt 10 km eller mer
Spredte skyer i en høyde av 1300 ft
Brutte skyer i en høyde av 1700 ft

METAR: ESSV 151220Z 33010KT 9999 SCT013 BKN017 18/15 Q1012

Tid: 15:02 (13:02 UTC)

Varsel

Denne rapporten ble laget for 1 time og 32 minutter siden, klokken 11:30 UTC
Varsel gyldig fra 15. klokken 12 UTC til 15. klokken 21 UTC
Vind 12 kt fra Nord-nordvest
Sikt 10 km eller mer
Spredte skyer i en høyde av 1200 ft
Brutte skyer i en høyde av 3500 ft
Sannsynlighet 40%
fra 15. klokken 12 UTC til 15. klokken 15 UTC
Brutte skyer i en høyde av 1200 ft

TAF: ESSV 151130Z 1512/1521 33012KT 9999 SCT012 BKN035 PROB40 1512/1515 BKN012

Værobservasjoner og værvarsel for over 4000 flyplasser (METAR- og TAF-rapporter).

Tilgjengelige stasjoner er representert av de røde og gule prikkene på kartet.

Hold musepekeren over prikken for å se navnet på stasjonen.

Klikk så for å se værobservasjoner og -varsler.

For å forandre kartet kan du klikke på den grønne knappen med svart kryss for å zoome inn, på den grønne knappen med strek for å zoome ut, eller på de grønne pilene for å se tilstøtende kart.


METAR-TAF: